Time,TemperatureF,DewpointF,PressureIn,WindDirection,WindDirectionDegrees,WindSpeedMPH,WindSpeedGustMPH,Humidity,HourlyPrecipIn,Conditions,Clouds,dailyrainin,SolarRadiationWatts/m^2,SoftwareType,DateUTC
2013-06-09 00:02:00,72.0,69.0,-100.00,South,178,0.0,5.0,91,0.00,,,0.00,0.000000,,2013-06-09 05:02:00,
2013-06-09 00:32:00,71.0,69.0,-100.00,SW,225,1.0,4.0,92,0.00,,,0.00,0.000000,,2013-06-09 05:32:00,
2013-06-09 00:42:00,71.0,69.0,-100.00,SW,225,1.0,4.0,92,0.00,,,0.00,0.000000,,2013-06-09 05:42:00,
2013-06-09 00:52:00,71.0,69.0,-100.00,SW,225,1.0,4.0,92,0.00,,,0.00,0.000000,,2013-06-09 05:52:00,
2013-06-09 01:02:00,71.0,69.0,-100.00,SW,225,1.0,4.0,92,0.00,,,0.00,0.000000,,2013-06-09 06:02:00,
2013-06-09 01:32:00,71.0,68.0,-100.00,SSW,211,2.0,6.0,91,0.00,,,0.00,0.000000,,2013-06-09 06:32:00,
2013-06-09 01:42:00,71.0,68.0,-100.00,SSW,211,2.0,6.0,91,0.00,,,0.00,0.000000,,2013-06-09 06:42:00,
2013-06-09 01:52:00,71.0,68.0,-100.00,SSW,211,2.0,6.0,91,0.00,,,0.00,0.000000,,2013-06-09 06:52:00,
2013-06-09 02:02:00,71.0,68.0,-100.00,SSW,211,2.0,6.0,91,0.00,,,0.00,0.000000,,2013-06-09 07:02:00,
2013-06-09 02:32:00,70.0,67.0,-100.00,SSW,213,1.0,4.0,90,0.00,,,-99.99,0.000000,,2013-06-09 07:32:00,
2013-06-09 02:42:00,70.0,67.0,-100.00,SSW,213,1.0,4.0,90,0.00,,,-99.99,0.000000,,2013-06-09 07:42:00,
2013-06-09 02:52:00,70.0,67.0,-100.00,SSW,213,1.0,4.0,90,0.00,,,-99.99,0.000000,,2013-06-09 07:52:00,
2013-06-09 03:02:00,70.0,67.0,-100.00,SSW,213,1.0,4.0,90,0.00,,,-99.99,0.000000,,2013-06-09 08:02:00,
2013-06-09 03:32:00,70.0,68.0,-100.00,SSW,202,0.0,4.0,93,0.00,,,0.00,0.000000,,2013-06-09 08:32:00,
2013-06-09 03:42:00,70.0,68.0,-100.00,SSW,202,0.0,4.0,93,0.00,,,0.00,0.000000,,2013-06-09 08:42:00,
2013-06-09 03:53:00,70.0,68.0,-100.00,SSW,202,0.0,4.0,93,0.00,,,0.00,0.000000,,2013-06-09 08:53:00,
2013-06-09 04:02:00,70.0,68.0,-100.00,SSW,202,0.0,4.0,93,0.00,,,0.00,0.000000,,2013-06-09 09:02:00,
2013-06-09 04:33:00,69.0,67.0,-100.00,SW,217,1.0,3.0,94,0.00,,,0.00,0.000000,,2013-06-09 09:33:00,
2013-06-09 04:43:00,69.0,67.0,-100.00,SW,217,1.0,3.0,94,0.00,,,0.00,0.000000,,2013-06-09 09:43:00,
2013-06-09 04:52:00,69.0,67.0,-100.00,SW,217,1.0,3.0,94,0.00,,,0.00,0.000000,,2013-06-09 09:52:00,
2013-06-09 05:03:00,69.0,67.0,-100.00,SW,217,1.0,3.0,94,0.00,,,0.00,0.000000,,2013-06-09 10:03:00,
2013-06-09 05:32:00,69.0,68.0,-100.00,SE,127,0.0,4.0,95,0.00,,,0.00,0.000000,,2013-06-09 10:32:00,
2013-06-09 05:43:00,69.0,68.0,-100.00,SE,127,0.0,4.0,95,0.00,,,0.00,0.000000,,2013-06-09 10:43:00,
2013-06-09 05:52:00,69.0,68.0,-100.00,SE,127,0.0,4.0,95,0.00,,,0.00,0.000000,,2013-06-09 10:52:00,
2013-06-09 06:02:00,69.0,68.0,-100.00,SE,127,0.0,4.0,95,0.00,,,0.00,0.000000,,2013-06-09 11:02:00,
2013-06-09 06:32:00,69.0,68.0,-100.00,ENE,71,1.0,4.0,95,0.00,,,0.00,4.000000,,2013-06-09 11:32:00,
2013-06-09 06:42:00,69.0,68.0,-100.00,ENE,71,1.0,4.0,95,0.00,,,0.00,4.000000,,2013-06-09 11:42:00,
2013-06-09 06:53:00,69.0,68.0,-100.00,ENE,71,1.0,4.0,95,0.00,,,0.00,4.000000,,2013-06-09 11:53:00,
2013-06-09 07:02:00,69.0,68.0,-100.00,ENE,71,1.0,4.0,95,0.00,,,0.00,4.000000,,2013-06-09 12:02:00,
2013-06-09 07:32:00,72.0,69.0,-100.00,SE,124,1.0,5.0,91,0.00,,,0.00,75.000000,,2013-06-09 12:32:00,
2013-06-09 07:42:00,72.0,69.0,-100.00,SE,124,1.0,5.0,91,0.00,,,0.00,75.000000,,2013-06-09 12:42:00,
2013-06-09 07:52:00,72.0,69.0,-100.00,SE,124,1.0,5.0,91,0.00,,,0.00,75.000000,,2013-06-09 12:52:00,
2013-06-09 08:02:00,72.0,69.0,-100.00,SE,124,1.0,5.0,91,0.00,,,0.00,75.000000,,2013-06-09 13:02:00,
2013-06-09 08:32:00,73.0,70.0,-100.00,SSW,208,1.0,4.0,91,0.00,,,0.00,134.000000,,2013-06-09 13:32:00,
2013-06-09 08:42:00,73.0,70.0,-100.00,SSW,208,1.0,4.0,91,0.00,,,0.00,134.000000,,2013-06-09 13:42:00,
2013-06-09 08:52:00,73.0,70.0,-100.00,SSW,208,1.0,4.0,91,0.00,,,0.00,134.000000,,2013-06-09 13:52:00,
2013-06-09 09:02:00,73.0,70.0,-100.00,SSW,208,1.0,4.0,91,0.00,,,0.00,134.000000,,2013-06-09 14:02:00,
2013-06-09 09:32:00,77.0,72.0,-100.00,SSW,210,1.0,5.0,86,0.00,,,0.00,181.000000,,2013-06-09 14:32:00,
2013-06-09 09:43:00,77.0,72.0,-100.00,SSW,210,1.0,5.0,86,0.00,,,0.00,181.000000,,2013-06-09 14:43:00,
2013-06-09 09:52:00,77.0,72.0,-100.00,SSW,210,1.0,5.0,86,0.00,,,0.00,181.000000,,2013-06-09 14:52:00,
2013-06-09 10:02:00,77.0,72.0,-100.00,SSW,210,1.0,5.0,86,0.00,,,0.00,181.000000,,2013-06-09 15:02:00,
2013-06-09 10:33:00,78.0,73.0,-100.00,SSW,194,2.0,5.0,84,0.00,,,0.00,195.000000,,2013-06-09 15:33:00,
2013-06-09 10:43:00,78.0,73.0,-100.00,SSW,194,2.0,5.0,84,0.00,,,0.00,195.000000,,2013-06-09 15:43:00,
2013-06-09 10:53:00,78.0,73.0,-100.00,SSW,194,2.0,5.0,84,0.00,,,0.00,195.000000,,2013-06-09 15:53:00,
2013-06-09 11:03:00,78.0,73.0,-100.00,SSW,194,2.0,5.0,84,0.00,,,0.00,195.000000,,2013-06-09 16:03:00,
2013-06-09 11:33:00,79.0,73.0,-100.00,East,82,3.0,9.0,82,0.00,,,0.00,253.000000,,2013-06-09 16:33:00,
2013-06-09 11:43:00,79.0,73.0,-100.00,East,82,3.0,9.0,82,0.00,,,0.00,253.000000,,2013-06-09 16:43:00,
2013-06-09 11:53:00,79.0,73.0,-100.00,East,82,3.0,9.0,82,0.00,,,0.00,253.000000,,2013-06-09 16:53:00,
2013-06-09 12:02:00,79.0,73.0,-100.00,East,82,3.0,9.0,82,0.00,,,0.00,253.000000,,2013-06-09 17:02:00,
2013-06-09 12:32:00,84.0,74.0,-100.00,SW,229,2.0,5.0,71,0.00,,,0.00,365.000000,,2013-06-09 17:32:00,
2013-06-09 12:42:00,84.0,74.0,-100.00,SW,229,2.0,5.0,71,0.00,,,0.00,365.000000,,2013-06-09 17:42:00,
2013-06-09 12:52:00,84.0,74.0,-100.00,SW,229,2.0,5.0,71,0.00,,,0.00,365.000000,,2013-06-09 17:52:00,
2013-06-09 13:02:00,84.0,74.0,-100.00,SW,229,2.0,5.0,71,0.00,,,0.00,365.000000,,2013-06-09 18:02:00,
2013-06-09 13:33:00,86.0,71.0,-100.00,SE,125,3.0,7.0,62,0.00,,,0.00,601.000000,,2013-06-09 18:33:00,
2013-06-09 13:42:00,86.0,71.0,-100.00,SE,125,3.0,7.0,62,0.00,,,0.00,601.000000,,2013-06-09 18:42:00,
2013-06-09 13:52:00,86.0,71.0,-100.00,SE,125,3.0,7.0,62,0.00,,,0.00,601.000000,,2013-06-09 18:52:00,
2013-06-09 14:02:00,86.0,71.0,-100.00,SE,125,3.0,7.0,62,0.00,,,0.00,601.000000,,2013-06-09 19:02:00,
2013-06-09 14:32:00,84.0,71.0,-100.00,East,99,6.0,12.0,66,0.00,,,0.00,621.000000,,2013-06-09 19:32:00,
2013-06-09 14:43:00,84.0,71.0,-100.00,East,99,6.0,12.0,66,0.00,,,0.00,621.000000,,2013-06-09 19:43:00,
2013-06-09 14:52:00,84.0,71.0,-100.00,East,99,6.0,12.0,66,0.00,,,0.00,621.000000,,2013-06-09 19:52:00,
2013-06-09 15:02:00,84.0,71.0,-100.00,East,99,6.0,12.0,66,0.00,,,0.00,621.000000,,2013-06-09 20:02:00,
2013-06-09 15:32:00,87.0,72.0,-100.00,SSE,147,4.0,12.0,62,0.00,,,0.00,640.000000,,2013-06-09 20:32:00,
2013-06-09 15:42:00,87.0,72.0,-100.00,SSE,147,4.0,12.0,62,0.00,,,0.00,640.000000,,2013-06-09 20:42:00,
2013-06-09 15:52:00,87.0,72.0,-100.00,SSE,147,4.0,12.0,62,0.00,,,0.00,640.000000,,2013-06-09 20:52:00,
2013-06-09 16:02:00,87.0,72.0,-100.00,SSE,147,4.0,12.0,62,0.00,,,0.00,640.000000,,2013-06-09 21:02:00,
2013-06-09 16:33:00,86.0,72.0,-100.00,SW,216,4.0,9.0,63,0.00,,,0.00,643.000000,,2013-06-09 21:33:00,
2013-06-09 16:44:00,86.0,72.0,-100.00,SW,216,4.0,9.0,63,0.00,,,0.00,643.000000,,2013-06-09 21:44:00,
2013-06-09 16:53:00,86.0,72.0,-100.00,SW,216,4.0,9.0,63,0.00,,,0.00,643.000000,,2013-06-09 21:53:00,
2013-06-09 17:02:00,86.0,72.0,-100.00,SW,216,4.0,9.0,63,0.00,,,0.00,643.000000,,2013-06-09 22:02:00,
2013-06-09 17:33:00,86.0,71.0,-100.00,SSW,208,3.0,8.0,62,0.00,,,0.00,392.000000,,2013-06-09 22:33:00,
2013-06-09 17:42:00,86.0,71.0,-100.00,SSW,208,3.0,8.0,62,0.00,,,0.00,392.000000,,2013-06-09 22:42:00,
2013-06-09 17:52:00,86.0,71.0,-100.00,SSW,208,3.0,8.0,62,0.00,,,0.00,392.000000,,2013-06-09 22:52:00,
2013-06-09 18:02:00,86.0,71.0,-100.00,SSW,208,3.0,8.0,62,0.00,,,0.00,392.000000,,2013-06-09 23:02:00,
2013-06-09 18:32:00,83.0,73.0,-100.00,South,173,2.0,8.0,72,0.00,,,0.00,217.000000,,2013-06-09 23:32:00,
2013-06-09 18:43:00,83.0,73.0,-100.00,South,173,2.0,8.0,72,0.00,,,0.00,217.000000,,2013-06-09 23:43:00,
2013-06-09 18:52:00,83.0,73.0,-100.00,South,173,2.0,8.0,72,0.00,,,0.00,217.000000,,2013-06-09 23:52:00,
2013-06-09 19:02:00,83.0,73.0,-100.00,South,173,2.0,8.0,72,0.00,,,0.00,217.000000,,2013-06-10 00:02:00,
2013-06-09 19:32:00,78.0,72.0,-100.00,SW,218,1.0,8.0,81,0.00,,,0.00,91.000000,,2013-06-10 00:32:00,
2013-06-09 19:42:00,78.0,72.0,-100.00,SW,218,1.0,8.0,81,0.00,,,0.00,91.000000,,2013-06-10 00:42:00,
2013-06-09 19:52:00,78.0,72.0,-100.00,SW,218,1.0,8.0,81,0.00,,,0.00,91.000000,,2013-06-10 00:52:00,
2013-06-09 20:02:00,78.0,72.0,-100.00,SW,218,1.0,8.0,81,0.00,,,0.00,91.000000,,2013-06-10 01:02:00,
2013-06-09 20:32:00,76.0,72.0,-100.00,SW,216,2.0,5.0,87,0.00,,,0.00,16.000000,,2013-06-10 01:32:00,
2013-06-09 20:43:00,76.0,72.0,-100.00,SW,216,2.0,5.0,87,0.00,,,0.00,16.000000,,2013-06-10 01:43:00,
2013-06-09 20:52:00,76.0,72.0,-100.00,SW,216,2.0,5.0,87,0.00,,,0.00,16.000000,,2013-06-10 01:52:00,
2013-06-09 21:02:00,76.0,72.0,-100.00,SW,216,2.0,5.0,87,0.00,,,0.00,16.000000,,2013-06-10 02:02:00,
2013-06-09 21:32:00,75.0,72.0,-100.00,SW,215,2.0,5.0,91,0.00,,,0.00,0.000000,,2013-06-10 02:32:00,
2013-06-09 21:42:00,75.0,72.0,-100.00,SW,215,2.0,5.0,91,0.00,,,0.00,0.000000,,2013-06-10 02:42:00,
2013-06-09 21:52:00,75.0,72.0,-100.00,SW,215,2.0,5.0,91,0.00,,,0.00,0.000000,,2013-06-10 02:52:00,
2013-06-09 22:02:00,75.0,72.0,-100.00,SW,215,2.0,5.0,91,0.00,,,0.00,0.000000,,2013-06-10 03:02:00,
2013-06-09 22:33:00,74.0,72.0,-100.00,SW,234,3.0,10.0,92,0.05,,,0.05,0.000000,,2013-06-10 03:33:00,
2013-06-09 22:43:00,74.0,72.0,-100.00,SW,234,3.0,10.0,92,0.05,,,0.05,0.000000,,2013-06-10 03:43:00,
2013-06-09 22:53:00,74.0,72.0,-100.00,SW,234,3.0,10.0,92,0.05,,,0.05,0.000000,,2013-06-10 03:53:00,
2013-06-09 23:03:00,74.0,72.0,-100.00,SW,234,3.0,10.0,92,0.05,,,0.05,0.000000,,2013-06-10 04:03:00,
2013-06-09 23:33:00,71.0,69.0,-100.00,SSW,200,0.0,8.0,94,0.01,,,0.06,0.000000,,2013-06-10 04:33:00,
2013-06-09 23:42:00,71.0,69.0,-100.00,SSW,200,0.0,8.0,94,0.01,,,0.06,0.000000,,2013-06-10 04:42:00,
2013-06-09 23:53:00,71.0,69.0,-100.00,SSW,200,0.0,8.0,94,0.01,,,0.06,0.000000,,2013-06-10 04:53:00,